Anzahl Datensätze: 288
min. Temperatur: -5.2 °C
max. Temperatur: 5.6 °C
max. Windgeschwindigkeit: 25.9 km/h
Niederschlagsumme: 0.0 mm
| Datum |
Zeit |
Temp °C |
Feuchte % |
Taupunkt °C |
Luftdruck hPa |
Wind km/h |
Windrichtung |
Strahlung w/m² |
Niederschlag mm |
|---|---|---|---|---|---|---|---|---|---|
| 19.02.2025 | 00:03 | -2.3 | 79 | -5.4 | 1023.9 | 0.0 | N | 0 | 0.0 |
| 19.02.2025 | 00:09 | -2.3 | 79 | -5.4 | 1023.8 | 1.4 | NNW | 0 | 0.0 |
| 19.02.2025 | 00:12 | -2.2 | 79 | -5.3 | 1023.8 | 1.4 | OSO | 0 | 0.0 |
| 19.02.2025 | 00:18 | -2.3 | 78 | -5.6 | 1023.8 | 1.4 | SO | 0 | 0.0 |
| 19.02.2025 | 00:24 | -2.3 | 79 | -5.4 | 1023.8 | 1.4 | NNO | 0 | 0.0 |
| 19.02.2025 | 00:27 | -2.3 | 79 | -5.4 | 1023.8 | 1.4 | NO | 0 | 0.0 |
| 19.02.2025 | 00:33 | -2.4 | 79 | -5.5 | 1023.7 | 1.4 | ONO | 0 | 0.0 |
| 19.02.2025 | 00:39 | -2.4 | 79 | -5.5 | 1023.8 | 0.0 | NO | 0 | 0.0 |
| 19.02.2025 | 00:42 | -2.4 | 79 | -5.5 | 1023.8 | 0.0 | NO | 0 | 0.0 |
| 19.02.2025 | 00:48 | -2.5 | 79 | -5.6 | 1023.8 | 0.0 | O | 0 | 0.0 |
| 19.02.2025 | 00:54 | -2.6 | 79 | -5.7 | 1023.6 | 0.0 | O | 0 | 0.0 |
| 19.02.2025 | 00:57 | -2.6 | 79 | -5.7 | 1023.7 | 1.4 | O | 0 | 0.0 |
| 19.02.2025 | 01:03 | -2.6 | 80 | -5.6 | 1023.7 | 1.4 | NO | 0 | 0.0 |
| 19.02.2025 | 01:09 | -2.7 | 80 | -5.7 | 1023.8 | 1.4 | NNO | 0 | 0.0 |
| 19.02.2025 | 01:12 | -2.7 | 80 | -5.7 | 1023.8 | 1.4 | N | 0 | 0.0 |
| 19.02.2025 | 01:18 | -2.7 | 80 | -5.7 | 1023.7 | 1.4 | NNO | 0 | 0.0 |
| 19.02.2025 | 01:24 | -2.8 | 80 | -5.8 | 1023.7 | 0.0 | NO | 0 | 0.0 |
| 19.02.2025 | 01:27 | -2.8 | 80 | -5.8 | 1023.7 | 0.0 | NO | 0 | 0.0 |
| 19.02.2025 | 01:33 | -2.9 | 80 | -5.9 | 1023.7 | 0.0 | NO | 0 | 0.0 |
| 19.02.2025 | 01:39 | -3.1 | 80 | -6.1 | 1023.7 | 0.0 | NO | 0 | 0.0 |
| 19.02.2025 | 01:42 | -3.1 | 81 | -5.9 | 1023.6 | 0.0 | NO | 0 | 0.0 |
| 19.02.2025 | 01:48 | -3.2 | 81 | -6.0 | 1023.6 | 0.0 | NO | 0 | 0.0 |
| 19.02.2025 | 01:54 | -3.2 | 82 | -5.8 | 1023.6 | 0.0 | NO | 0 | 0.0 |
| 19.02.2025 | 01:57 | -3.3 | 82 | -5.9 | 1023.6 | 0.0 | NO | 0 | 0.0 |
| 19.02.2025 | 02:03 | -3.4 | 82 | -6.0 | 1023.6 | 0.0 | NO | 0 | 0.0 |
| 19.02.2025 | 02:09 | -3.4 | 82 | -6.0 | 1023.6 | 0.0 | NO | 0 | 0.0 |
| 19.02.2025 | 02:12 | -3.4 | 83 | -5.9 | 1023.5 | 0.0 | NO | 0 | 0.0 |
| 19.02.2025 | 02:18 | -3.5 | 83 | -6.0 | 1023.6 | 0.0 | NO | 0 | 0.0 |
| 19.02.2025 | 02:24 | -3.6 | 83 | -6.1 | 1023.6 | 0.0 | NO | 0 | 0.0 |
| 19.02.2025 | 02:27 | -3.6 | 83 | -6.1 | 1023.6 | 0.0 | NO | 0 | 0.0 |
| 19.02.2025 | 02:33 | -3.7 | 83 | -6.2 | 1023.6 | 0.0 | NO | 0 | 0.0 |
| 19.02.2025 | 02:39 | -3.8 | 83 | -6.3 | 1023.5 | 0.0 | NO | 0 | 0.0 |
| 19.02.2025 | 02:42 | -3.8 | 84 | -6.1 | 1023.5 | 0.0 | NO | 0 | 0.0 |
| 19.02.2025 | 02:48 | -3.9 | 84 | -6.2 | 1023.6 | 0.0 | NO | 0 | 0.0 |
| 19.02.2025 | 02:54 | -3.9 | 84 | -6.2 | 1023.6 | 0.0 | NO | 0 | 0.0 |
| 19.02.2025 | 02:57 | -4.0 | 84 | -6.3 | 1023.6 | 0.0 | NO | 0 | 0.0 |
| 19.02.2025 | 03:03 | -4.1 | 84 | -6.4 | 1023.7 | 0.0 | NO | 0 | 0.0 |
| 19.02.2025 | 03:09 | -4.1 | 85 | -6.2 | 1023.6 | 0.0 | NO | 0 | 0.0 |
| 19.02.2025 | 03:12 | -4.1 | 85 | -6.2 | 1023.6 | 0.0 | NO | 0 | 0.0 |
| 19.02.2025 | 03:18 | -4.2 | 85 | -6.3 | 1023.5 | 0.0 | NO | 0 | 0.0 |
| 19.02.2025 | 03:24 | -4.2 | 85 | -6.3 | 1023.6 | 0.0 | NO | 0 | 0.0 |
| 19.02.2025 | 03:27 | -4.3 | 86 | -6.3 | 1023.5 | 0.0 | NO | 0 | 0.0 |
| 19.02.2025 | 03:33 | -4.3 | 86 | -6.3 | 1023.5 | 0.0 | NO | 0 | 0.0 |
| 19.02.2025 | 03:39 | -4.3 | 86 | -6.3 | 1023.4 | 0.0 | NO | 0 | 0.0 |
| 19.02.2025 | 03:42 | -4.4 | 86 | -6.4 | 1023.4 | 0.0 | NO | 0 | 0.0 |
| 19.02.2025 | 03:48 | -4.4 | 86 | -6.4 | 1023.4 | 0.0 | NO | 0 | 0.0 |
| 19.02.2025 | 03:54 | -4.5 | 86 | -6.5 | 1023.4 | 0.0 | NO | 0 | 0.0 |
| 19.02.2025 | 03:57 | -4.5 | 86 | -6.5 | 1023.3 | 0.0 | NO | 0 | 0.0 |
| 19.02.2025 | 04:03 | -4.5 | 87 | -6.3 | 1023.2 | 0.0 | NO | 0 | 0.0 |
| 19.02.2025 | 04:09 | -4.6 | 87 | -6.4 | 1023.3 | 0.0 | NO | 0 | 0.0 |
| 19.02.2025 | 04:12 | -4.6 | 87 | -6.4 | 1023.3 | 0.0 | NO | 0 | 0.0 |
| 19.02.2025 | 04:18 | -4.6 | 87 | -6.4 | 1023.3 | 0.0 | NO | 0 | 0.0 |
| 19.02.2025 | 04:24 | -4.7 | 87 | -6.5 | 1023.3 | 0.0 | NO | 0 | 0.0 |
| 19.02.2025 | 04:27 | -4.7 | 87 | -6.5 | 1023.2 | 0.0 | NO | 0 | 0.0 |
| 19.02.2025 | 04:33 | -4.8 | 87 | -6.6 | 1023.2 | 0.0 | NO | 0 | 0.0 |
| 19.02.2025 | 04:39 | -4.8 | 87 | -6.6 | 1023.3 | 0.0 | NO | 0 | 0.0 |
| 19.02.2025 | 04:42 | -4.8 | 87 | -6.6 | 1023.3 | 0.0 | NO | 0 | 0.0 |
| 19.02.2025 | 04:48 | -4.8 | 87 | -6.6 | 1023.4 | 0.0 | NO | 0 | 0.0 |
| 19.02.2025 | 04:54 | -4.9 | 87 | -6.7 | 1023.3 | 0.0 | NO | 0 | 0.0 |
| 19.02.2025 | 04:57 | -4.9 | 87 | -6.7 | 1023.3 | 0.0 | NO | 0 | 0.0 |
| 19.02.2025 | 05:03 | -4.9 | 87 | -6.7 | 1023.3 | 0.0 | NO | 0 | 0.0 |
| 19.02.2025 | 05:09 | -4.9 | 88 | -6.6 | 1023.4 | 0.0 | NO | 0 | 0.0 |
| 19.02.2025 | 05:12 | -5.0 | 88 | -6.7 | 1023.4 | 0.0 | NO | 0 | 0.0 |
| 19.02.2025 | 05:18 | -5.1 | 87 | -6.9 | 1023.4 | 0.0 | NO | 0 | 0.0 |
| 19.02.2025 | 05:24 | -5.1 | 87 | -6.9 | 1023.4 | 0.0 | NO | 0 | 0.0 |
| 19.02.2025 | 05:27 | -5.1 | 88 | -6.8 | 1023.4 | 0.0 | NO | 0 | 0.0 |
| 19.02.2025 | 05:33 | -5.1 | 88 | -6.8 | 1023.4 | 0.0 | NO | 0 | 0.0 |
| 19.02.2025 | 05:39 | -5.1 | 88 | -6.8 | 1023.4 | 0.0 | NO | 0 | 0.0 |
| 19.02.2025 | 05:42 | -5.1 | 88 | -6.8 | 1023.4 | 0.0 | NO | 0 | 0.0 |
| 19.02.2025 | 05:48 | -5.1 | 88 | -6.8 | 1023.4 | 0.0 | NO | 0 | 0.0 |
| 19.02.2025 | 05:54 | -5.1 | 88 | -6.8 | 1023.4 | 0.0 | NO | 0 | 0.0 |
| 19.02.2025 | 05:57 | -5.1 | 88 | -6.8 | 1023.4 | 0.0 | NO | 0 | 0.0 |
| 19.02.2025 | 06:03 | -5.2 | 88 | -6.9 | 1023.4 | 0.0 | NO | 0 | 0.0 |
| 19.02.2025 | 06:09 | -5.1 | 88 | -6.8 | 1023.4 | 0.0 | NO | 0 | 0.0 |
| 19.02.2025 | 06:12 | -5.1 | 88 | -6.8 | 1023.5 | 0.0 | NO | 0 | 0.0 |
| 19.02.2025 | 06:18 | -5.1 | 88 | -6.8 | 1023.4 | 0.0 | NO | 0 | 0.0 |
| 19.02.2025 | 06:24 | -5.1 | 88 | -6.8 | 1023.4 | 0.0 | NO | 0 | 0.0 |
| 19.02.2025 | 06:27 | -5.1 | 88 | -6.8 | 1023.4 | 0.0 | NO | 0 | 0.0 |
| 19.02.2025 | 06:33 | -5.1 | 88 | -6.8 | 1023.5 | 0.0 | ONO | 0 | 0.0 |
| 19.02.2025 | 06:39 | -5.1 | 88 | -6.8 | 1023.5 | 0.0 | ONO | 0 | 0.0 |
| 19.02.2025 | 06:42 | -5.1 | 88 | -6.8 | 1023.4 | 0.0 | ONO | 0 | 0.0 |
| 19.02.2025 | 06:48 | -5.2 | 88 | -6.9 | 1023.4 | 0.0 | ONO | 0 | 0.0 |
| 19.02.2025 | 06:54 | -5.2 | 88 | -6.9 | 1023.5 | 0.0 | ONO | 0 | 0.0 |
| 19.02.2025 | 06:57 | -5.2 | 89 | -6.7 | 1023.6 | 0.0 | ONO | 0 | 0.0 |
| 19.02.2025 | 07:03 | -5.1 | 89 | -6.6 | 1023.6 | 0.0 | ONO | 0 | 0.0 |
| 19.02.2025 | 07:09 | -5.1 | 89 | -6.6 | 1023.6 | 0.0 | ONO | 0 | 0.0 |
| 19.02.2025 | 07:12 | -5.1 | 89 | -6.6 | 1023.6 | 0.0 | ONO | 0 | 0.0 |
| 19.02.2025 | 07:18 | -5.1 | 89 | -6.6 | 1023.6 | 0.0 | ONO | 0 | 0.0 |
| 19.02.2025 | 07:24 | -5.1 | 89 | -6.6 | 1023.7 | 0.0 | ONO | 0 | 0.0 |
| 19.02.2025 | 07:27 | -5.1 | 89 | -6.6 | 1023.7 | 0.0 | ONO | 0 | 0.0 |
| 19.02.2025 | 07:33 | -5.1 | 89 | -6.6 | 1023.8 | 0.0 | ONO | 7 | 0.0 |
| 19.02.2025 | 07:39 | -5.1 | 89 | -6.6 | 1023.8 | 0.0 | ONO | 7 | 0.0 |
| 19.02.2025 | 07:42 | -5.1 | 89 | -6.6 | 1023.9 | 0.0 | ONO | 5 | 0.0 |
| 19.02.2025 | 07:48 | -5.0 | 89 | -6.5 | 1023.9 | 0.0 | ONO | 7 | 0.0 |
| 19.02.2025 | 07:54 | -4.9 | 89 | -6.4 | 1023.9 | 0.0 | ONO | 9 | 0.0 |
| 19.02.2025 | 07:57 | -4.9 | 89 | -6.4 | 1024.0 | 0.0 | ONO | 11 | 0.0 |
| 19.02.2025 | 08:03 | -4.8 | 89 | -6.3 | 1023.9 | 0.0 | ONO | 14 | 0.0 |
| 19.02.2025 | 08:09 | -4.7 | 89 | -6.2 | 1024.0 | 0.0 | ONO | 18 | 0.0 |
| 19.02.2025 | 08:12 | -4.7 | 89 | -6.2 | 1024.0 | 0.0 | ONO | 19 | 0.0 |
| 19.02.2025 | 08:18 | -4.6 | 89 | -6.1 | 1024.1 | 0.0 | ONO | 23 | 0.0 |
| 19.02.2025 | 08:24 | -4.5 | 89 | -6.0 | 1024.1 | 0.0 | ONO | 26 | 0.0 |
| 19.02.2025 | 08:27 | -4.4 | 89 | -5.9 | 1024.1 | 0.0 | NO | 28 | 0.0 |
| 19.02.2025 | 08:33 | -4.4 | 89 | -5.9 | 1024.1 | 1.4 | NO | 32 | 0.0 |
| 19.02.2025 | 08:39 | -4.3 | 89 | -5.8 | 1023.9 | 0.0 | N | 35 | 0.0 |
| 19.02.2025 | 08:42 | -4.2 | 89 | -5.7 | 1023.9 | 0.0 | N | 37 | 0.0 |
| 19.02.2025 | 08:48 | -4.1 | 89 | -5.6 | 1023.8 | 0.0 | ONO | 44 | 0.0 |
| 19.02.2025 | 08:54 | -3.9 | 88 | -5.6 | 1024.0 | 0.0 | ONO | 51 | 0.0 |
| 19.02.2025 | 08:57 | -3.9 | 88 | -5.6 | 1024.1 | 0.0 | ONO | 53 | 0.0 |
| 19.02.2025 | 09:03 | -3.7 | 88 | -5.4 | 1024.1 | 1.4 | N | 58 | 0.0 |
| 19.02.2025 | 09:09 | -3.6 | 88 | -5.3 | 1024.0 | 0.0 | N | 65 | 0.0 |
| 19.02.2025 | 09:12 | -3.5 | 88 | -5.2 | 1024.0 | 0.0 | N | 69 | 0.0 |
| 19.02.2025 | 09:18 | -3.3 | 87 | -5.2 | 1024.1 | 0.0 | N | 77 | 0.0 |
| 19.02.2025 | 09:24 | -3.2 | 87 | -5.1 | 1024.0 | 0.0 | N | 88 | 0.0 |
| 19.02.2025 | 09:27 | -3.1 | 87 | -5.0 | 1024.0 | 0.0 | N | 93 | 0.0 |
| 19.02.2025 | 09:33 | -2.8 | 85 | -5.0 | 1024.0 | 0.0 | NNO | 104 | 0.0 |
| 19.02.2025 | 09:39 | -2.6 | 83 | -5.1 | 1024.0 | 1.4 | N | 113 | 0.0 |
| 19.02.2025 | 09:42 | -2.4 | 82 | -5.1 | 1024.1 | 1.4 | NO | 116 | 0.0 |
| 19.02.2025 | 09:48 | -2.2 | 78 | -5.5 | 1024.2 | 1.4 | NNW | 121 | 0.0 |
| 19.02.2025 | 09:54 | -1.8 | 75 | -5.6 | 1024.2 | 1.4 | NNO | 134 | 0.0 |
| 19.02.2025 | 09:57 | -1.7 | 74 | -5.7 | 1024.2 | 3.2 | N | 135 | 0.0 |
| 19.02.2025 | 10:03 | -1.5 | 72 | -5.9 | 1024.2 | 3.2 | NW | 155 | 0.0 |
| 19.02.2025 | 10:09 | -1.3 | 71 | -5.9 | 1024.1 | 1.4 | N | 171 | 0.0 |
| 19.02.2025 | 10:12 | -1.2 | 70 | -6.0 | 1024.2 | 1.4 | NNW | 171 | 0.0 |
| 19.02.2025 | 10:18 | -1.0 | 69 | -6.0 | 1024.1 | 1.4 | NNW | 200 | 0.0 |
| 19.02.2025 | 10:24 | -0.9 | 67 | -6.3 | 1024.1 | 3.2 | WNW | 227 | 0.0 |
| 19.02.2025 | 10:27 | -0.8 | 67 | -6.2 | 1024.1 | 3.2 | NW | 232 | 0.0 |
| 19.02.2025 | 10:33 | -0.6 | 67 | -6.0 | 1024.1 | 3.2 | NW | 250 | 0.0 |
| 19.02.2025 | 10:39 | -0.6 | 66 | -6.2 | 1024.1 | 4.7 | OSO | 241 | 0.0 |
| 19.02.2025 | 10:42 | -0.4 | 66 | -6.0 | 1024.2 | 4.7 | WNW | 237 | 0.0 |
| 19.02.2025 | 10:48 | -0.3 | 66 | -5.9 | 1024.3 | 3.2 | NNW | 211 | 0.0 |
| 19.02.2025 | 10:54 | -0.2 | 65 | -6.0 | 1024.2 | 3.2 | NW | 257 | 0.0 |
| 19.02.2025 | 10:57 | -0.2 | 64 | -6.2 | 1024.2 | 3.2 | SW | 264 | 0.0 |
| 19.02.2025 | 11:03 | -0.1 | 65 | -5.9 | 1024.2 | 3.2 | NNO | 290 | 0.0 |
| 19.02.2025 | 11:09 | 0.0 | 65 | -5.8 | 1024.2 | 4.7 | NNO | 327 | 0.0 |
| 19.02.2025 | 11:12 | 0.0 | 64 | -6.0 | 1024.2 | 4.7 | WSW | 257 | 0.0 |
| 19.02.2025 | 11:18 | 0.2 | 64 | -5.8 | 1024.2 | 4.7 | SSO | 360 | 0.0 |
| 19.02.2025 | 11:24 | 0.3 | 64 | -5.7 | 1024.1 | 1.4 | W | 253 | 0.0 |
| 19.02.2025 | 11:27 | 0.4 | 64 | -5.6 | 1024.1 | 1.4 | NNW | 295 | 0.0 |
| 19.02.2025 | 11:33 | 0.7 | 63 | -5.5 | 1024.2 | 3.2 | WNW | 378 | 0.0 |
| 19.02.2025 | 11:39 | 0.7 | 63 | -5.5 | 1024.2 | 3.2 | N | 315 | 0.0 |
| 19.02.2025 | 11:42 | 0.8 | 63 | -5.4 | 1024.1 | 3.2 | N | 396 | 0.0 |
| 19.02.2025 | 11:48 | 1.0 | 62 | -5.5 | 1024.1 | 4.7 | NW | 272 | 0.0 |
| 19.02.2025 | 11:54 | 1.2 | 62 | -5.3 | 1024.1 | 3.2 | SSW | 265 | 0.0 |
| 19.02.2025 | 11:57 | 1.2 | 61 | -5.5 | 1024.1 | 3.2 | NNW | 264 | 0.0 |
| 19.02.2025 | 12:03 | 1.2 | 61 | -5.5 | 1024.0 | 3.2 | W | 243 | 0.0 |
| 19.02.2025 | 12:09 | 1.3 | 61 | -5.4 | 1024.0 | 3.2 | N | 367 | 0.0 |
| 19.02.2025 | 12:12 | 1.4 | 61 | -5.3 | 1024.0 | 3.2 | N | 410 | 0.0 |
| 19.02.2025 | 12:18 | 1.6 | 61 | -5.1 | 1023.9 | 4.7 | N | 415 | 0.0 |
| 19.02.2025 | 12:24 | 1.8 | 60 | -5.1 | 1023.8 | 6.5 | SW | 320 | 0.0 |
| 19.02.2025 | 12:27 | 1.9 | 60 | -5.0 | 1023.7 | 4.7 | NW | 232 | 0.0 |
| 19.02.2025 | 12:33 | 1.9 | 59 | -5.3 | 1023.9 | 4.7 | NO | 285 | 0.0 |
| 19.02.2025 | 12:39 | 1.8 | 60 | -5.1 | 1023.9 | 4.7 | N | 278 | 0.0 |
| 19.02.2025 | 12:42 | 1.9 | 60 | -5.0 | 1023.9 | 4.7 | NNW | 285 | 0.0 |
| 19.02.2025 | 12:48 | 2.2 | 60 | -4.8 | 1023.7 | 3.2 | W | 427 | 0.0 |
| 19.02.2025 | 12:54 | 2.3 | 59 | -4.9 | 1023.7 | 4.7 | NW | 387 | 0.0 |
| 19.02.2025 | 12:57 | 2.4 | 59 | -4.8 | 1023.6 | 4.7 | N | 283 | 0.0 |
| 19.02.2025 | 13:03 | 2.6 | 59 | -4.6 | 1023.6 | 4.7 | S | 399 | 0.0 |
| 19.02.2025 | 13:09 | 2.9 | 59 | -4.3 | 1023.5 | 4.7 | NNW | 322 | 0.0 |
| 19.02.2025 | 13:12 | 3.0 | 58 | -4.5 | 1023.5 | 4.7 | N | 374 | 0.0 |
| 19.02.2025 | 13:18 | 3.2 | 58 | -4.3 | 1023.5 | 3.2 | NW | 410 | 0.0 |
| 19.02.2025 | 13:24 | 3.4 | 57 | -4.3 | 1023.3 | 3.2 | N | 439 | 0.0 |
| 19.02.2025 | 13:27 | 3.5 | 57 | -4.2 | 1023.3 | 4.7 | SSW | 448 | 0.0 |
| 19.02.2025 | 13:33 | 3.7 | 57 | -4.0 | 1023.5 | 6.5 | NW | 417 | 0.0 |
| 19.02.2025 | 13:39 | 3.8 | 57 | -3.9 | 1023.4 | 4.7 | S | 383 | 0.0 |
| 19.02.2025 | 13:42 | 4.1 | 57 | -3.7 | 1023.5 | 3.2 | NNW | 374 | 0.0 |
| 19.02.2025 | 13:48 | 4.3 | 57 | -3.5 | 1023.3 | 3.2 | N | 343 | 0.0 |
| 19.02.2025 | 13:54 | 4.5 | 55 | -3.8 | 1023.4 | 3.2 | SO | 311 | 0.0 |
| 19.02.2025 | 13:57 | 4.4 | 55 | -3.9 | 1023.3 | 3.2 | OSO | 322 | 0.0 |
| 19.02.2025 | 14:03 | 4.4 | 56 | -3.6 | 1023.2 | 3.2 | WSW | 332 | 0.0 |
| 19.02.2025 | 14:09 | 4.6 | 56 | -3.4 | 1023.2 | 1.4 | SSW | 339 | 0.0 |
| 19.02.2025 | 14:12 | 4.8 | 56 | -3.2 | 1023.1 | 1.4 | N | 336 | 0.0 |
| 19.02.2025 | 14:18 | 4.9 | 56 | -3.1 | 1023.1 | 3.2 | NW | 341 | 0.0 |
| 19.02.2025 | 14:24 | 5.0 | 56 | -3.1 | 1023.0 | 3.2 | WNW | 339 | 0.0 |
| 19.02.2025 | 14:27 | 5.2 | 56 | -2.9 | 1023.0 | 3.2 | WNW | 320 | 0.0 |
| 19.02.2025 | 14:33 | 5.2 | 57 | -2.6 | 1022.9 | 4.7 | NW | 290 | 0.0 |
| 19.02.2025 | 14:39 | 4.9 | 57 | -2.9 | 1022.8 | 4.7 | SSW | 294 | 0.0 |
| 19.02.2025 | 14:42 | 4.9 | 57 | -2.9 | 1022.8 | 4.7 | NNW | 292 | 0.0 |
| 19.02.2025 | 14:48 | 5.1 | 57 | -2.7 | 1022.8 | 3.2 | WSW | 246 | 0.0 |
| 19.02.2025 | 14:54 | 5.3 | 58 | -2.3 | 1022.9 | 3.2 | WSW | 267 | 0.0 |
| 19.02.2025 | 14:57 | 5.3 | 58 | -2.3 | 1023.0 | 3.2 | SSW | 262 | 0.0 |
| 19.02.2025 | 15:03 | 5.3 | 59 | -2.1 | 1023.0 | 3.2 | SW | 243 | 0.0 |
| 19.02.2025 | 15:09 | 5.4 | 62 | -1.3 | 1022.9 | 3.2 | SSO | 250 | 0.0 |
| 19.02.2025 | 15:12 | 5.6 | 62 | -1.1 | 1022.9 | 3.2 | NO | 246 | 0.0 |
| 19.02.2025 | 15:18 | 5.5 | 61 | -1.4 | 1023.0 | 3.2 | NNW | 220 | 0.0 |
| 19.02.2025 | 15:24 | 5.5 | 60 | -1.7 | 1023.0 | 4.7 | W | 179 | 0.0 |
| 19.02.2025 | 15:27 | 5.5 | 61 | -1.4 | 1023.0 | 3.2 | SW | 172 | 0.0 |
| 19.02.2025 | 15:33 | 5.4 | 61 | -1.5 | 1023.1 | 4.7 | WNW | 139 | 0.0 |
| 19.02.2025 | 15:39 | 5.4 | 62 | -1.3 | 1023.1 | 4.7 | W | 120 | 0.0 |
| 19.02.2025 | 15:42 | 5.3 | 62 | -1.4 | 1023.2 | 3.2 | S | 121 | 0.0 |
| 19.02.2025 | 15:48 | 5.2 | 62 | -1.5 | 1023.1 | 3.2 | SSW | 107 | 0.0 |
| 19.02.2025 | 15:54 | 5.2 | 63 | -1.3 | 1023.2 | 3.2 | SSW | 93 | 0.0 |
| 19.02.2025 | 15:57 | 5.1 | 63 | -1.4 | 1023.2 | 3.2 | SSW | 91 | 0.0 |
| 19.02.2025 | 16:03 | 4.9 | 64 | -1.3 | 1023.2 | 3.2 | N | 111 | 0.0 |
| 19.02.2025 | 16:09 | 5.0 | 64 | -1.2 | 1023.0 | 3.2 | NW | 102 | 0.0 |
| 19.02.2025 | 16:12 | 5.1 | 64 | -1.1 | 1023.1 | 3.2 | N | 102 | 0.0 |
| 19.02.2025 | 16:18 | 5.0 | 64 | -1.2 | 1023.0 | 3.2 | N | 97 | 0.0 |
| 19.02.2025 | 16:24 | 5.0 | 64 | -1.2 | 1023.1 | 1.4 | NNO | 67 | 0.0 |
| 19.02.2025 | 16:27 | 5.0 | 65 | -1.0 | 1023.1 | 1.4 | ONO | 72 | 0.0 |
| 19.02.2025 | 16:33 | 5.1 | 65 | -0.9 | 1023.1 | 1.4 | N | 53 | 0.0 |
| 19.02.2025 | 16:39 | 4.8 | 65 | -1.2 | 1023.1 | 3.2 | OSO | 39 | 0.0 |
| 19.02.2025 | 16:42 | 4.8 | 65 | -1.2 | 1023.1 | 3.2 | W | 37 | 0.0 |
| 19.02.2025 | 16:48 | 4.6 | 66 | -1.2 | 1023.1 | 1.4 | NNW | 33 | 0.0 |
| 19.02.2025 | 16:54 | 4.5 | 66 | -1.3 | 1023.2 | 1.4 | SW | 32 | 0.0 |
| 19.02.2025 | 16:57 | 4.3 | 66 | -1.5 | 1023.2 | 1.4 | W | 32 | 0.0 |
| 19.02.2025 | 17:03 | 4.3 | 67 | -1.3 | 1023.3 | 1.4 | W | 30 | 0.0 |
| 19.02.2025 | 17:09 | 4.2 | 67 | -1.4 | 1023.2 | 0.0 | SSO | 30 | 0.0 |
| 19.02.2025 | 17:12 | 4.2 | 67 | -1.4 | 1023.1 | 0.0 | SSO | 30 | 0.0 |
| 19.02.2025 | 17:18 | 4.0 | 68 | -1.4 | 1023.1 | 0.0 | NNO | 28 | 0.0 |
| 19.02.2025 | 17:24 | 3.9 | 68 | -1.5 | 1023.1 | 1.4 | NO | 26 | 0.0 |
| 19.02.2025 | 17:27 | 3.8 | 68 | -1.6 | 1023.1 | 0.0 | ONO | 25 | 0.0 |
| 19.02.2025 | 17:33 | 3.7 | 69 | -1.5 | 1023.2 | 0.0 | SO | 19 | 0.0 |
| 19.02.2025 | 17:39 | 3.6 | 70 | -1.4 | 1023.3 | 0.0 | SO | 14 | 0.0 |
| 19.02.2025 | 17:42 | 3.4 | 70 | -1.6 | 1023.4 | 0.0 | SO | 12 | 0.0 |
| 19.02.2025 | 17:48 | 3.2 | 71 | -1.6 | 1023.4 | 0.0 | SO | 7 | 0.0 |
| 19.02.2025 | 17:54 | 2.9 | 72 | -1.6 | 1023.4 | 0.0 | SO | 5 | 0.0 |
| 19.02.2025 | 17:57 | 2.8 | 72 | -1.7 | 1023.5 | 0.0 | SO | 0 | 0.0 |
| 19.02.2025 | 18:03 | 2.5 | 73 | -1.8 | 1023.6 | 0.0 | SO | 0 | 0.0 |
| 19.02.2025 | 18:09 | 2.3 | 74 | -1.9 | 1023.6 | 0.0 | SSO | 0 | 0.0 |
| 19.02.2025 | 18:12 | 2.2 | 75 | -1.8 | 1023.7 | 0.0 | SSO | 0 | 0.0 |
| 19.02.2025 | 18:18 | 2.0 | 75 | -2.0 | 1023.7 | 0.0 | SSO | 0 | 0.0 |
| 19.02.2025 | 18:24 | 1.8 | 76 | -2.0 | 1023.8 | 0.0 | SSO | 0 | 0.0 |
| 19.02.2025 | 18:27 | 1.8 | 76 | -2.0 | 1023.9 | 0.0 | ONO | 0 | 0.0 |
| 19.02.2025 | 18:33 | 1.6 | 76 | -2.2 | 1024.0 | 0.0 | ONO | 0 | 0.0 |
| 19.02.2025 | 18:39 | 1.4 | 77 | -2.2 | 1024.1 | 0.0 | O | 0 | 0.0 |
| 19.02.2025 | 18:42 | 1.4 | 77 | -2.2 | 1024.1 | 0.0 | O | 0 | 0.0 |
| 19.02.2025 | 18:48 | 1.3 | 78 | -2.1 | 1024.1 | 0.0 | ONO | 0 | 0.0 |
| 19.02.2025 | 18:54 | 1.2 | 78 | -2.2 | 1024.0 | 0.0 | ONO | 0 | 0.0 |
| 19.02.2025 | 18:57 | 1.1 | 78 | -2.3 | 1024.1 | 0.0 | ONO | 0 | 0.0 |
| 19.02.2025 | 19:03 | 0.9 | 78 | -2.5 | 1024.0 | 0.0 | ONO | 0 | 0.0 |
| 19.02.2025 | 19:09 | 0.8 | 79 | -2.4 | 1024.1 | 0.0 | ONO | 0 | 0.0 |
| 19.02.2025 | 19:12 | 0.7 | 79 | -2.5 | 1024.1 | 0.0 | ONO | 0 | 0.0 |
| 19.02.2025 | 19:18 | 0.6 | 79 | -2.6 | 1024.2 | 0.0 | ONO | 0 | 0.0 |
| 19.02.2025 | 19:24 | 0.6 | 80 | -2.5 | 1024.2 | 0.0 | ONO | 0 | 0.0 |
| 19.02.2025 | 19:27 | 0.5 | 80 | -2.5 | 1024.3 | 0.0 | ONO | 0 | 0.0 |
| 19.02.2025 | 19:33 | 0.4 | 80 | -2.6 | 1024.4 | 0.0 | ONO | 0 | 0.0 |
| 19.02.2025 | 19:39 | 0.3 | 81 | -2.6 | 1024.3 | 0.0 | SO | 0 | 0.0 |
| 19.02.2025 | 19:42 | 0.2 | 81 | -2.7 | 1024.3 | 0.0 | SSO | 0 | 0.0 |
| 19.02.2025 | 19:48 | 0.1 | 81 | -2.8 | 1024.3 | 1.4 | SSO | 0 | 0.0 |
| 19.02.2025 | 19:54 | -0.1 | 82 | -2.8 | 1024.2 | 0.0 | SSO | 0 | 0.0 |
| 19.02.2025 | 19:57 | -0.1 | 82 | -2.8 | 1024.3 | 0.0 | SSO | 0 | 0.0 |
| 19.02.2025 | 20:03 | -0.1 | 83 | -2.6 | 1024.4 | 0.0 | SSO | 0 | 0.0 |
| 19.02.2025 | 20:09 | -0.1 | 83 | -2.6 | 1024.4 | 0.0 | SSO | 0 | 0.0 |
| 19.02.2025 | 20:12 | -0.2 | 83 | -2.7 | 1024.3 | 0.0 | SSO | 0 | 0.0 |
| 19.02.2025 | 20:18 | -0.2 | 83 | -2.7 | 1024.4 | 0.0 | SSO | 0 | 0.0 |
| 19.02.2025 | 20:24 | -0.3 | 83 | -2.8 | 1024.4 | 1.4 | SSO | 0 | 0.0 |
| 19.02.2025 | 20:27 | -0.3 | 83 | -2.8 | 1024.4 | 0.0 | SSO | 0 | 0.0 |
| 19.02.2025 | 20:33 | -0.3 | 83 | -2.8 | 1024.5 | 0.0 | SSO | 0 | 0.0 |
| 19.02.2025 | 20:39 | -0.3 | 84 | -2.7 | 1024.5 | 0.0 | SSO | 0 | 0.0 |
| 19.02.2025 | 20:42 | -0.3 | 84 | -2.7 | 1024.6 | 0.0 | SSO | 0 | 0.0 |
| 19.02.2025 | 20:48 | -0.3 | 84 | -2.7 | 1024.7 | 0.0 | SSO | 0 | 0.0 |
| 19.02.2025 | 20:54 | -0.4 | 84 | -2.8 | 1024.6 | 0.0 | SSO | 0 | 0.0 |
| 19.02.2025 | 20:57 | -0.4 | 84 | -2.8 | 1024.7 | 0.0 | SSO | 0 | 0.0 |
| 19.02.2025 | 21:03 | -0.3 | 84 | -2.7 | 1024.8 | 0.0 | SSO | 0 | 0.0 |
| 19.02.2025 | 21:09 | -0.3 | 84 | -2.7 | 1024.7 | 0.0 | SSO | 0 | 0.0 |
| 19.02.2025 | 21:12 | -0.3 | 84 | -2.7 | 1024.8 | 0.0 | SSO | 0 | 0.0 |
| 19.02.2025 | 21:18 | -0.3 | 84 | -2.7 | 1024.9 | 0.0 | SSO | 0 | 0.0 |
| 19.02.2025 | 21:24 | -0.3 | 84 | -2.7 | 1025.0 | 1.4 | SSO | 0 | 0.0 |
| 19.02.2025 | 21:27 | -0.3 | 84 | -2.7 | 1025.0 | 1.4 | SSO | 0 | 0.0 |
| 19.02.2025 | 21:33 | -0.4 | 84 | -2.8 | 1025.0 | 0.0 | SSO | 0 | 0.0 |
| 19.02.2025 | 21:39 | -0.4 | 84 | -2.8 | 1025.0 | 0.0 | SSO | 0 | 0.0 |
| 19.02.2025 | 21:42 | -0.4 | 84 | -2.8 | 1025.0 | 0.0 | SSO | 0 | 0.0 |
| 19.02.2025 | 21:48 | -0.4 | 84 | -2.8 | 1025.0 | 0.0 | SSO | 0 | 0.0 |
| 19.02.2025 | 21:54 | -0.5 | 84 | -2.9 | 1024.9 | 0.0 | SSO | 0 | 0.0 |
| 19.02.2025 | 21:57 | -0.5 | 85 | -2.7 | 1024.9 | 0.0 | SSO | 0 | 0.0 |
| 19.02.2025 | 22:03 | -0.5 | 85 | -2.7 | 1024.9 | 0.0 | SSO | 0 | 0.0 |
| 19.02.2025 | 22:09 | -0.5 | 85 | -2.7 | 1024.8 | 0.0 | SSO | 0 | 0.0 |
| 19.02.2025 | 22:12 | -0.5 | 85 | -2.7 | 1024.8 | 0.0 | SSO | 0 | 0.0 |
| 19.02.2025 | 22:18 | -0.5 | 85 | -2.7 | 1024.8 | 0.0 | SSO | 0 | 0.0 |
| 19.02.2025 | 22:24 | -0.5 | 85 | -2.7 | 1024.9 | 0.0 | SO | 0 | 0.0 |
| 19.02.2025 | 22:27 | -0.5 | 85 | -2.7 | 1024.9 | 0.0 | SO | 0 | 0.0 |
| 19.02.2025 | 22:33 | -0.4 | 85 | -2.6 | 1024.9 | 0.0 | SO | 0 | 0.0 |
| 19.02.2025 | 22:39 | -0.5 | 85 | -2.7 | 1024.8 | 0.0 | OSO | 0 | 0.0 |
| 19.02.2025 | 22:42 | -0.5 | 85 | -2.7 | 1024.9 | 0.0 | OSO | 0 | 0.0 |
| 19.02.2025 | 22:48 | -0.6 | 85 | -2.8 | 1024.9 | 0.0 | OSO | 0 | 0.0 |
| 19.02.2025 | 22:54 | -0.6 | 85 | -2.8 | 1024.8 | 0.0 | OSO | 0 | 0.0 |
| 19.02.2025 | 22:57 | -0.7 | 85 | -2.9 | 1024.8 | 0.0 | OSO | 0 | 0.0 |
| 19.02.2025 | 23:03 | -0.7 | 85 | -2.9 | 1024.8 | 0.0 | OSO | 0 | 0.0 |
| 19.02.2025 | 23:09 | -0.7 | 86 | -2.7 | 1024.7 | 0.0 | OSO | 0 | 0.0 |
| 19.02.2025 | 23:12 | -0.7 | 86 | -2.7 | 1024.7 | 0.0 | OSO | 0 | 0.0 |
| 19.02.2025 | 23:18 | -0.7 | 86 | -2.7 | 1024.5 | 0.0 | OSO | 0 | 0.0 |
| 19.02.2025 | 23:24 | -0.7 | 86 | -2.7 | 1024.5 | 0.0 | OSO | 0 | 0.0 |
| 19.02.2025 | 23:27 | -0.7 | 86 | -2.7 | 1024.5 | 0.0 | OSO | 0 | 0.0 |
| 19.02.2025 | 23:33 | -0.7 | 85 | -2.9 | 1024.5 | 0.0 | O | 0 | 0.0 |
| 19.02.2025 | 23:39 | -0.7 | 85 | -2.9 | 1024.6 | 0.0 | O | 0 | 0.0 |
| 19.02.2025 | 23:42 | -0.8 | 85 | -3.0 | 1024.6 | 0.0 | O | 0 | 0.0 |
| 19.02.2025 | 23:48 | -0.8 | 85 | -3.0 | 1024.6 | 0.0 | O | 0 | 0.0 |
| 19.02.2025 | 23:54 | -0.8 | 85 | -3.0 | 1024.8 | 0.0 | O | 0 | 0.0 |
| 19.02.2025 | 23:57 | -0.8 | 85 | -3.0 | 1024.8 | 0.0 | O | 0 | 0.0 |